sensor_id;sensor_type;location;lat;lon;timestamp;pressure;altitude;pressure_sealevel;temperature;humidity
41264;BME280;26998;48.714;9.414;2023-03-19T00:00:24;98994.78;;;7.78;100.00
41264;BME280;26998;48.714;9.414;2023-03-19T00:02:50;99015.78;;;7.73;100.00
41264;BME280;26998;48.714;9.414;2023-03-19T00:05:17;99010.28;;;7.75;100.00
41264;BME280;26998;48.714;9.414;2023-03-19T00:07:44;99005.13;;;7.73;100.00
41264;BME280;26998;48.714;9.414;2023-03-19T00:10:10;99009.75;;;7.79;100.00
41264;BME280;26998;48.714;9.414;2023-03-19T00:12:37;99016.72;;;7.80;100.00
41264;BME280;26998;48.714;9.414;2023-03-19T00:15:04;99011.41;;;7.80;100.00
41264;BME280;26998;48.714;9.414;2023-03-19T00:17:31;99006.91;;;7.81;100.00
41264;BME280;26998;48.714;9.414;2023-03-19T00:19:58;99007.09;;;7.79;100.00
41264;BME280;26998;48.714;9.414;2023-03-19T00:22:25;99019.72;;;7.77;100.00
41264;BME280;26998;48.714;9.414;2023-03-19T00:24:51;99017.13;;;7.69;100.00
41264;BME280;26998;48.714;9.414;2023-03-19T00:27:18;99022.44;;;7.69;100.00
41264;BME280;26998;48.714;9.414;2023-03-19T00:29:44;99014.81;;;7.66;100.00
41264;BME280;26998;48.714;9.414;2023-03-19T00:32:13;99029.44;;;7.70;100.00
41264;BME280;26998;48.714;9.414;2023-03-19T00:34:40;99021.56;;;7.77;100.00
41264;BME280;26998;48.714;9.414;2023-03-19T00:37:06;99018.09;;;7.76;100.00
41264;BME280;26998;48.714;9.414;2023-03-19T00:39:33;99018.44;;;7.73;100.00
41264;BME280;26998;48.714;9.414;2023-03-19T00:41:59;99024.59;;;7.74;100.00
41264;BME280;26998;48.714;9.414;2023-03-19T00:44:26;99026.00;;;7.84;100.00
41264;BME280;26998;48.714;9.414;2023-03-19T00:46:53;99019.50;;;7.87;100.00
41264;BME280;26998;48.714;9.414;2023-03-19T00:49:19;99009.22;;;7.84;100.00
41264;BME280;26998;48.714;9.414;2023-03-19T00:51:46;99003.41;;;7.80;100.00
41264;BME280;26998;48.714;9.414;2023-03-19T00:54:13;99017.63;;;7.73;100.00
41264;BME280;26998;48.714;9.414;2023-03-19T00:56:39;99024.13;;;7.70;100.00
41264;BME280;26998;48.714;9.414;2023-03-19T00:59:06;99036.09;;;7.66;100.00
41264;BME280;26998;48.714;9.414;2023-03-19T01:01:32;99034.28;;;7.67;100.00
41264;BME280;26998;48.714;9.414;2023-03-19T01:03:59;99039.19;;;7.78;100.00
41264;BME280;26998;48.714;9.414;2023-03-19T01:06:25;99019.72;;;7.77;100.00
41264;BME280;26998;48.714;9.414;2023-03-19T01:08:52;99023.28;;;7.70;100.00
41264;BME280;26998;48.714;9.414;2023-03-19T01:11:19;99032.72;;;7.72;100.00
41264;BME280;26998;48.714;9.414;2023-03-19T01:13:46;99028.09;;;7.66;100.00
41264;BME280;26998;48.714;9.414;2023-03-19T01:16:13;99032.81;;;7.56;100.00
41264;BME280;26998;48.714;9.414;2023-03-19T01:18:39;99040.66;;;7.57;100.00
41264;BME280;26998;48.714;9.414;2023-03-19T01:21:05;99059.75;;;7.53;100.00
41264;BME280;26998;48.714;9.414;2023-03-19T01:23:32;99066.22;;;7.58;100.00
41264;BME280;26998;48.714;9.414;2023-03-19T01:25:59;99064.59;;;7.57;100.00
41264;BME280;26998;48.714;9.414;2023-03-19T01:28:25;99063.09;;;7.55;100.00
41264;BME280;26998;48.714;9.414;2023-03-19T01:30:52;99075.09;;;7.43;100.00
41264;BME280;26998;48.714;9.414;2023-03-19T01:33:18;99096.88;;;7.46;100.00
41264;BME280;26998;48.714;9.414;2023-03-19T01:35:45;99103.50;;;7.50;100.00
41264;BME280;26998;48.714;9.414;2023-03-19T01:38:12;99106.06;;;7.35;100.00
41264;BME280;26998;48.714;9.414;2023-03-19T01:40:46;99118.34;;;7.36;100.00
41264;BME280;26998;48.714;9.414;2023-03-19T01:43:19;99118.34;;;7.36;100.00
41264;BME280;26998;48.714;9.414;2023-03-19T01:45:50;99127.47;;;7.42;100.00
41264;BME280;26998;48.714;9.414;2023-03-19T01:48:24;99126.94;;;7.47;100.00
41264;BME280;26998;48.714;9.414;2023-03-19T01:50:52;99145.69;;;7.53;100.00
41264;BME280;26998;48.714;9.414;2023-03-19T01:53:22;99154.81;;;7.59;100.00
41264;BME280;26998;48.714;9.414;2023-03-19T01:55:51;99149.50;;;7.67;100.00
41264;BME280;26998;48.714;9.414;2023-03-19T01:58:20;99153.13;;;7.74;100.00
41264;BME280;26998;48.714;9.414;2023-03-19T02:00:54;99152.06;;;7.83;100.00
41264;BME280;26998;48.714;9.414;2023-03-19T02:03:20;99128.13;;;7.83;100.00
41264;BME280;26998;48.714;9.414;2023-03-19T02:05:48;99128.59;;;7.87;100.00
41264;BME280;26998;48.714;9.414;2023-03-19T02:08:16;99122.94;;;7.90;100.00
41264;BME280;26998;48.714;9.414;2023-03-19T02:10:45;99129.41;;;7.96;100.00
41264;BME280;26998;48.714;9.414;2023-03-19T02:13:13;99131.03;;;7.97;100.00
41264;BME280;26998;48.714;9.414;2023-03-19T02:15:42;99136.38;;;7.97;100.00
41264;BME280;26998;48.714;9.414;2023-03-19T02:18:13;99142.16;;;8.00;100.00
41264;BME280;26998;48.714;9.414;2023-03-19T02:20:54;99132.22;;;7.94;100.00
41264;BME280;26998;48.714;9.414;2023-03-19T02:23:41;99136.72;;;7.94;100.00
41264;BME280;26998;48.714;9.414;2023-03-19T02:26:11;99144.53;;;7.95;100.00
41264;BME280;26998;48.714;9.414;2023-03-19T02:28:41;99157.16;;;8.01;100.00
41264;BME280;26998;48.714;9.414;2023-03-19T02:31:09;99144.31;;;8.05;100.00
41264;BME280;26998;48.714;9.414;2023-03-19T02:33:36;99159.28;;;8.06;100.00
41264;BME280;26998;48.714;9.414;2023-03-19T02:36:08;99163.97;;;8.04;100.00
41264;BME280;26998;48.714;9.414;2023-03-19T02:38:36;99151.00;;;8.01;100.00
41264;BME280;26998;48.714;9.414;2023-03-19T02:41:07;99158.47;;;8.05;100.00
41264;BME280;26998;48.714;9.414;2023-03-19T02:43:36;99177.91;;;8.06;100.00
41264;BME280;26998;48.714;9.414;2023-03-19T02:46:05;99182.59;;;8.04;100.00
41264;BME280;26998;48.714;9.414;2023-03-19T02:48:32;99169.47;;;8.02;100.00
41264;BME280;26998;48.714;9.414;2023-03-19T02:50:58;99175.91;;;8.08;100.00
41264;BME280;26998;48.714;9.414;2023-03-19T02:53:25;99160.44;;;8.12;100.00
41264;BME280;26998;48.714;9.414;2023-03-19T02:55:52;99166.91;;;8.09;100.00
41264;BME280;26998;48.714;9.414;2023-03-19T02:58:19;99166.97;;;8.01;100.00
41264;BME280;26998;48.714;9.414;2023-03-19T03:00:48;99177.00;;;7.91;100.00
41264;BME280;26998;48.714;9.414;2023-03-19T03:03:14;99175.94;;;8.00;100.00
41264;BME280;26998;48.714;9.414;2023-03-19T03:05:41;99209.56;;;8.01;100.00
41264;BME280;26998;48.714;9.414;2023-03-19T03:08:08;99242.53;;;7.92;100.00
41264;BME280;26998;48.714;9.414;2023-03-19T03:10:39;99244.84;;;7.95;100.00
41264;BME280;26998;48.714;9.414;2023-03-19T03:13:12;99286.63;;;7.86;100.00
41264;BME280;26998;48.714;9.414;2023-03-19T03:15:39;99286.09;;;7.91;100.00
41264;BME280;26998;48.714;9.414;2023-03-19T03:18:05;99309.56;;;7.95;100.00
41264;BME280;26998;48.714;9.414;2023-03-19T03:20:31;99328.34;;;7.94;100.00
41264;BME280;26998;48.714;9.414;2023-03-19T03:22:58;99334.00;;;7.91;100.00
41264;BME280;26998;48.714;9.414;2023-03-19T03:25:24;99333.81;;;8.00;100.00
41264;BME280;26998;48.714;9.414;2023-03-19T03:27:51;99320.69;;;8.07;100.00
41264;BME280;26998;48.714;9.414;2023-03-19T03:30:17;99319.69;;;8.00;100.00
41264;BME280;26998;48.714;9.414;2023-03-19T03:32:44;99369.13;;;7.86;100.00
41264;BME280;26998;48.714;9.414;2023-03-19T03:35:10;99394.91;;;7.85;100.00
41264;BME280;26998;48.714;9.414;2023-03-19T03:37:37;99416.53;;;7.82;100.00
41264;BME280;26998;48.714;9.414;2023-03-19T03:40:05;99449.94;;;7.77;100.00
41264;BME280;26998;48.714;9.414;2023-03-19T03:42:31;99511.97;;;7.77;100.00
41264;BME280;26998;48.714;9.414;2023-03-19T03:44:58;99528.28;;;7.74;100.00
41264;BME280;26998;48.714;9.414;2023-03-19T03:47:24;99561.84;;;7.75;100.00
41264;BME280;26998;48.714;9.414;2023-03-19T03:49:51;99588.78;;;7.72;100.00
41264;BME280;26998;48.714;9.414;2023-03-19T03:52:17;99610.94;;;7.73;100.00
41264;BME280;26998;48.714;9.414;2023-03-19T03:54:45;99624.56;;;7.70;100.00
41264;BME280;26998;48.714;9.414;2023-03-19T03:57:12;99642.44;;;7.59;100.00
41264;BME280;26998;48.714;9.414;2023-03-19T03:59:38;99650.25;;;7.53;100.00
41264;BME280;26998;48.714;9.414;2023-03-19T04:02:04;99653.84;;;7.44;100.00
41264;BME280;26998;48.714;9.414;2023-03-19T04:04:31;99674.50;;;7.50;100.00
41264;BME280;26998;48.714;9.414;2023-03-19T04:06:58;99701.47;;;7.55;100.00
41264;BME280;26998;48.714;9.414;2023-03-19T04:09:24;99704.75;;;7.49;100.00
41264;BME280;26998;48.714;9.414;2023-03-19T04:11:53;99684.56;;;7.38;100.00
41264;BME280;26998;48.714;9.414;2023-03-19T04:14:19;99670.09;;;7.32;100.00
41264;BME280;26998;48.714;9.414;2023-03-19T04:16:46;99672.06;;;7.30;100.00
41264;BME280;26998;48.714;9.414;2023-03-19T04:19:12;99687.72;;;7.33;100.00
41264;BME280;26998;48.714;9.414;2023-03-19T04:21:39;99704.34;;;7.35;100.00
41264;BME280;26998;48.714;9.414;2023-03-19T04:24:05;99684.97;;;7.25;100.00
41264;BME280;26998;48.714;9.414;2023-03-19T04:26:32;99701.63;;;7.27;100.00
41264;BME280;26998;48.714;9.414;2023-03-19T04:28:58;99713.09;;;7.28;100.00
41264;BME280;26998;48.714;9.414;2023-03-19T04:31:24;99723.22;;;7.24;100.00
41264;BME280;26998;48.714;9.414;2023-03-19T04:33:51;99715.63;;;7.11;100.00
41264;BME280;26998;48.714;9.414;2023-03-19T04:36:17;99726.78;;;7.15;100.00
41264;BME280;26998;48.714;9.414;2023-03-19T04:38:44;99745.94;;;7.18;100.00
41264;BME280;26998;48.714;9.414;2023-03-19T04:41:10;99752.94;;;7.20;100.00
41264;BME280;26998;48.714;9.414;2023-03-19T04:43:37;99754.81;;;7.09;100.00
41264;BME280;26998;48.714;9.414;2023-03-19T04:46:04;98972.56;;;7.09;100.00
41264;BME280;26998;48.714;9.414;2023-03-19T04:48:31;98954.16;;;7.07;100.00
41264;BME280;26998;48.714;9.414;2023-03-19T04:50:57;98943.31;;;7.09;100.00
41264;BME280;26998;48.714;9.414;2023-03-19T04:53:24;98938.50;;;7.12;100.00
41264;BME280;26998;48.714;9.414;2023-03-19T04:55:50;98924.22;;;7.13;100.00
41264;BME280;26998;48.714;9.414;2023-03-19T04:58:17;98926.47;;;7.25;100.00
41264;BME280;26998;48.714;9.414;2023-03-19T05:00:43;98921.47;;;7.30;100.00
41264;BME280;26998;48.714;9.414;2023-03-19T05:03:10;98927.75;;;7.29;100.00
41264;BME280;26998;48.714;9.414;2023-03-19T05:05:36;98937.22;;;7.31;100.00
41264;BME280;26998;48.714;9.414;2023-03-19T05:08:02;98936.44;;;7.23;100.00
41264;BME280;26998;48.714;9.414;2023-03-19T05:10:29;98930.28;;;7.22;100.00
41264;BME280;26998;48.714;9.414;2023-03-19T05:12:55;98940.78;;;7.24;100.00
41264;BME280;26998;48.714;9.414;2023-03-19T05:15:22;98935.75;;;7.29;100.00
41264;BME280;26998;48.714;9.414;2023-03-19T05:17:48;98929.09;;;7.33;100.00
41264;BME280;26998;48.714;9.414;2023-03-19T05:20:15;98933.75;;;7.31;100.00
41264;BME280;26998;48.714;9.414;2023-03-19T05:22:41;98938.91;;;7.32;100.00
41264;BME280;26998;48.714;9.414;2023-03-19T05:25:08;98937.88;;;7.33;100.00
41264;BME280;26998;48.714;9.414;2023-03-19T05:27:35;98940.53;;;7.33;100.00
41264;BME280;26998;48.714;9.414;2023-03-19T05:30:01;98942.03;;;7.36;100.00
41264;BME280;26998;48.714;9.414;2023-03-19T05:32:28;98946.34;;;7.37;100.00
41264;BME280;26998;48.714;9.414;2023-03-19T05:34:54;98945.31;;;7.38;100.00
41264;BME280;26998;48.714;9.414;2023-03-19T05:37:21;98955.59;;;7.41;100.00
41264;BME280;26998;48.714;9.414;2023-03-19T05:39:50;98954.63;;;7.42;100.00
41264;BME280;26998;48.714;9.414;2023-03-19T05:42:17;98958.94;;;7.43;100.00
41264;BME280;26998;48.714;9.414;2023-03-19T05:44:45;98970.75;;;7.40;100.00
41264;BME280;26998;48.714;9.414;2023-03-19T05:47:11;98971.75;;;7.39;100.00
41264;BME280;26998;48.714;9.414;2023-03-19T05:49:38;98971.63;;;7.33;100.00
41264;BME280;26998;48.714;9.414;2023-03-19T05:52:05;98966.81;;;7.28;100.00
41264;BME280;26998;48.714;9.414;2023-03-19T05:54:31;98958.34;;;7.33;100.00
41264;BME280;26998;48.714;9.414;2023-03-19T05:56:58;98966.94;;;7.35;100.00
41264;BME280;26998;48.714;9.414;2023-03-19T05:59:24;98955.66;;;7.33;100.00
41264;BME280;26998;48.714;9.414;2023-03-19T06:01:51;98958.00;;;7.28;100.00
41264;BME280;26998;48.714;9.414;2023-03-19T06:04:17;98956.84;;;7.30;100.00
41264;BME280;26998;48.714;9.414;2023-03-19T06:06:44;98955.66;;;7.33;100.00
41264;BME280;26998;48.714;9.414;2023-03-19T06:09:10;98959.81;;;7.35;100.00
41264;BME280;26998;48.714;9.414;2023-03-19T06:11:37;98962.47;;;7.35;100.00
41264;BME280;26998;48.714;9.414;2023-03-19T06:14:03;98965.28;;;7.34;100.00
41264;BME280;26998;48.714;9.414;2023-03-19T06:16:30;98957.16;;;7.35;100.00
41264;BME280;26998;48.714;9.414;2023-03-19T06:18:57;98960.41;;;7.46;100.00
41264;BME280;26998;48.714;9.414;2023-03-19T06:21:23;98954.03;;;7.55;100.00
41264;BME280;26998;48.714;9.414;2023-03-19T06:23:50;98964.50;;;7.56;100.00
41264;BME280;26998;48.714;9.414;2023-03-19T06:26:16;98967.00;;;7.58;100.00
41264;BME280;26998;48.714;9.414;2023-03-19T06:28:42;98971.13;;;7.60;100.00
41264;BME280;26998;48.714;9.414;2023-03-19T06:31:09;98977.63;;;7.58;100.00
41264;BME280;26998;48.714;9.414;2023-03-19T06:33:35;98984.59;;;7.59;100.00
41264;BME280;26998;48.714;9.414;2023-03-19T06:36:02;98990.75;;;7.59;100.00
41264;BME280;26998;48.714;9.414;2023-03-19T06:38:29;98989.59;;;7.54;100.00
41264;BME280;26998;48.714;9.414;2023-03-19T06:40:56;98998.31;;;7.48;100.00
41264;BME280;26998;48.714;9.414;2023-03-19T06:43:22;99005.22;;;7.57;100.00
41264;BME280;26998;48.714;9.414;2023-03-19T06:45:49;98992.81;;;7.72;100.00
41264;BME280;26998;48.714;9.414;2023-03-19T06:48:15;98993.94;;;7.78;100.00
41264;BME280;26998;48.714;9.414;2023-03-19T06:50:44;98993.94;;;7.78;100.00
41264;BME280;26998;48.714;9.414;2023-03-19T06:53:11;98985.63;;;7.81;100.00
41264;BME280;26998;48.714;9.414;2023-03-19T06:55:37;98998.22;;;7.87;100.00
41264;BME280;26998;48.714;9.414;2023-03-19T06:58:04;98993.34;;;7.91;100.00
41264;BME280;26998;48.714;9.414;2023-03-19T07:00:32;99001.06;;;8.08;100.00
41264;BME280;26998;48.714;9.414;2023-03-19T07:02:59;99012.88;;;8.29;100.00
41264;BME280;26998;48.714;9.414;2023-03-19T07:05:25;99021.47;;;8.39;100.00
41264;BME280;26998;48.714;9.414;2023-03-19T07:07:52;99031.56;;;8.44;100.00
41264;BME280;26998;48.714;9.414;2023-03-19T07:10:19;99042.94;;;8.61;100.00
41264;BME280;26998;48.714;9.414;2023-03-19T07:12:46;99051.94;;;8.74;100.00
41264;BME280;26998;48.714;9.414;2023-03-19T07:15:13;99074.44;;;8.72;100.00
41264;BME280;26998;48.714;9.414;2023-03-19T07:17:39;99080.00;;;8.47;100.00
41264;BME280;26998;48.714;9.414;2023-03-19T07:20:06;99077.63;;;8.29;100.00
41264;BME280;26998;48.714;9.414;2023-03-19T07:22:32;99065.03;;;8.46;100.00
41264;BME280;26998;48.714;9.414;2023-03-19T07:24:59;99056.88;;;8.48;100.00
41264;BME280;26998;48.714;9.414;2023-03-19T07:27:25;99050.09;;;8.60;100.00
41264;BME280;26998;48.714;9.414;2023-03-19T07:29:51;99041.28;;;8.74;100.00
41264;BME280;26998;48.714;9.414;2023-03-19T07:32:18;99041.47;;;8.88;100.00
41264;BME280;26998;48.714;9.414;2023-03-19T07:34:45;99047.47;;;9.05;100.00
41264;BME280;26998;48.714;9.414;2023-03-19T07:37:12;99052.25;;;9.24;100.00
41264;BME280;26998;48.714;9.414;2023-03-19T07:39:38;99066.97;;;9.35;100.00
41264;BME280;26998;48.714;9.414;2023-03-19T07:42:05;99080.94;;;9.37;100.00
41264;BME280;26998;48.714;9.414;2023-03-19T07:44:32;99081.31;;;9.34;100.00
41264;BME280;26998;48.714;9.414;2023-03-19T07:46:59;99090.16;;;9.19;100.00
41264;BME280;26998;48.714;9.414;2023-03-19T07:49:25;99101.56;;;9.13;100.00
41264;BME280;26998;48.714;9.414;2023-03-19T07:51:51;99093.81;;;9.33;100.00
41264;BME280;26998;48.714;9.414;2023-03-19T07:54:19;99101.53;;;9.43;100.00
41264;BME280;26998;48.714;9.414;2023-03-19T07:56:46;99115.72;;;9.58;100.00
41264;BME280;26998;48.714;9.414;2023-03-19T07:59:12;99123.72;;;9.73;100.00
41264;BME280;26998;48.714;9.414;2023-03-19T08:01:39;99142.09;;;9.83;100.00
41264;BME280;26998;48.714;9.414;2023-03-19T08:04:06;99153.38;;;10.00;100.00
41264;BME280;26998;48.714;9.414;2023-03-19T08:06:32;99170.78;;;10.10;100.00
41264;BME280;26998;48.714;9.414;2023-03-19T08:08:59;99193.19;;;10.09;100.00
41264;BME280;26998;48.714;9.414;2023-03-19T08:11:25;99204.84;;;10.23;100.00
41264;BME280;26998;48.714;9.414;2023-03-19T08:13:51;99210.81;;;10.40;100.00
41264;BME280;26998;48.714;9.414;2023-03-19T08:16:19;99206.06;;;10.57;100.00
41264;BME280;26998;48.714;9.414;2023-03-19T08:18:46;99211.44;;;10.57;100.00
41264;BME280;26998;48.714;9.414;2023-03-19T08:21:12;99219.50;;;10.63;100.00
41264;BME280;26998;48.714;9.414;2023-03-19T08:23:42;99228.88;;;10.74;100.00
41264;BME280;26998;48.714;9.414;2023-03-19T08:26:08;99223.66;;;10.88;100.00
41264;BME280;26998;48.714;9.414;2023-03-19T08:28:35;99229.56;;;11.04;100.00
41264;BME280;26998;48.714;9.414;2023-03-19T08:31:06;99225.59;;;10.94;100.00
41264;BME280;26998;48.714;9.414;2023-03-19T08:33:33;99228.47;;;10.77;100.00
41264;BME280;26998;48.714;9.414;2023-03-19T08:36:04;99215.94;;;10.99;100.00
41264;BME280;26998;48.714;9.414;2023-03-19T08:38:31;99218.59;;;11.21;100.00
41264;BME280;26998;48.714;9.414;2023-03-19T08:40:58;99219.16;;;11.38;100.00
41264;BME280;26998;48.714;9.414;2023-03-19T08:43:24;99221.91;;;11.23;100.00
41264;BME280;26998;48.714;9.414;2023-03-19T08:45:51;99225.09;;;11.33;100.00
41264;BME280;26998;48.714;9.414;2023-03-19T08:48:17;99220.13;;;11.30;100.00
41264;BME280;26998;48.714;9.414;2023-03-19T08:50:50;99217.41;;;11.02;100.00
41264;BME280;26998;48.714;9.414;2023-03-19T08:53:17;99228.06;;;10.95;100.00
41264;BME280;26998;48.714;9.414;2023-03-19T08:55:43;99220.91;;;11.02;100.00
41264;BME280;26998;48.714;9.414;2023-03-19T08:58:10;99230.06;;;11.15;100.00
41264;BME280;26998;48.714;9.414;2023-03-19T09:00:36;99217.00;;;11.26;100.00
41264;BME280;26998;48.714;9.414;2023-03-19T09:03:03;99206.78;;;11.65;100.00
41264;BME280;26998;48.714;9.414;2023-03-19T09:05:29;99193.84;;;11.68;100.00
41264;BME280;26998;48.714;9.414;2023-03-19T09:07:56;99179.88;;;11.79;100.00
41264;BME280;26998;48.714;9.414;2023-03-19T09:10:22;99176.31;;;12.00;100.00
41264;BME280;26998;48.714;9.414;2023-03-19T09:12:49;99146.25;;;12.05;100.00
41264;BME280;26998;48.714;9.414;2023-03-19T09:15:15;99124.69;;;12.33;100.00
41264;BME280;26998;48.714;9.414;2023-03-19T09:17:43;99134.34;;;12.21;100.00
41264;BME280;26998;48.714;9.414;2023-03-19T09:20:09;99143.44;;;12.27;100.00
41264;BME280;26998;48.714;9.414;2023-03-19T09:22:36;99078.75;;;12.43;100.00
41264;BME280;26998;48.714;9.414;2023-03-19T09:25:04;99094.03;;;12.56;100.00
41264;BME280;26998;48.714;9.414;2023-03-19T09:27:31;99092.34;;;13.01;100.00
41264;BME280;26998;48.714;9.414;2023-03-19T09:29:57;99027.38;;;12.79;100.00
41264;BME280;26998;48.714;9.414;2023-03-19T09:35:09;98996.41;;;13.61;100.00
41264;BME280;26998;48.714;9.414;2023-03-19T09:37:36;98969.09;;;14.03;100.00
41264;BME280;26998;48.714;9.414;2023-03-19T09:40:03;98915.13;;;14.54;100.00
41264;BME280;26998;48.714;9.414;2023-03-19T09:42:59;98813.66;;;15.10;100.00
41264;BME280;26998;48.714;9.414;2023-03-19T09:45:30;98800.09;;;15.05;100.00
41264;BME280;26998;48.714;9.414;2023-03-19T09:48:01;98786.38;;;15.37;100.00
41264;BME280;26998;48.714;9.414;2023-03-19T09:50:31;98740.25;;;15.33;100.00
41264;BME280;26998;48.714;9.414;2023-03-19T09:53:12;98771.34;;;15.29;100.00
41264;BME280;26998;48.714;9.414;2023-03-19T09:55:45;98733.94;;;16.10;100.00
41264;BME280;26998;48.714;9.414;2023-03-19T09:58:18;98720.81;;;16.13;100.00
41264;BME280;26998;48.714;9.414;2023-03-19T10:00:48;98710.59;;;16.27;100.00
41264;BME280;26998;48.714;9.414;2023-03-19T10:09:09;98687.19;;;17.52;96.08
41264;BME280;26998;48.714;9.414;2023-03-19T10:15:02;98670.31;;;17.62;92.06
41264;BME280;26998;48.714;9.414;2023-03-19T10:17:06;98659.84;;;18.05;88.06
41264;BME280;26998;48.714;9.414;2023-03-19T10:20:00;98662.47;;;16.93;92.73
41264;BME280;26998;48.714;9.414;2023-03-19T10:22:36;98665.00;;;16.54;95.86
41264;BME280;26998;48.714;9.414;2023-03-19T10:25:07;98662.66;;;16.75;95.11
41264;BME280;26998;48.714;9.414;2023-03-19T10:27:37;98657.78;;;16.43;93.20
41264;BME280;26998;48.714;9.414;2023-03-19T10:30:12;98655.34;;;16.87;90.20
41264;BME280;26998;48.714;9.414;2023-03-19T10:32:42;98650.41;;;16.67;91.93
41264;BME280;26998;48.714;9.414;2023-03-19T10:35:21;98648.50;;;16.68;90.01
41264;BME280;26998;48.714;9.414;2023-03-19T10:37:49;98644.31;;;17.05;91.68
41264;BME280;26998;48.714;9.414;2023-03-19T10:40:29;98650.06;;;16.92;93.72
41264;BME280;26998;48.714;9.414;2023-03-19T10:43:11;98647.13;;;17.11;76.64
41264;BME280;26998;48.714;9.414;2023-03-19T10:45:40;98647.28;;;17.21;76.00
41264;BME280;26998;48.714;9.414;2023-03-19T10:48:13;98651.53;;;17.17;67.40
41264;BME280;26998;48.714;9.414;2023-03-19T10:50:51;98634.06;;;17.58;68.05
41264;BME280;26998;48.714;9.414;2023-03-19T10:55:56;98643.97;;;17.52;66.87
41264;BME280;26998;48.714;9.414;2023-03-19T10:58:28;98641.97;;;16.92;70.20
41264;BME280;26998;48.714;9.414;2023-03-19T11:01:04;98632.38;;;17.01;74.39
41264;BME280;26998;48.714;9.414;2023-03-19T11:06:12;98625.69;;;17.60;69.94
41264;BME280;26998;48.714;9.414;2023-03-19T11:08:41;98622.94;;;17.54;68.88
41264;BME280;26998;48.714;9.414;2023-03-19T11:11:33;98623.59;;;17.28;66.26
41264;BME280;26998;48.714;9.414;2023-03-19T11:14:18;98630.97;;;17.16;66.89
41264;BME280;26998;48.714;9.414;2023-03-19T11:16:49;98620.44;;;17.14;64.74
41264;BME280;26998;48.714;9.414;2023-03-19T11:19:29;98630.50;;;17.19;70.76
41264;BME280;26998;48.714;9.414;2023-03-19T11:24:40;98629.09;;;17.72;57.94
41264;BME280;26998;48.714;9.414;2023-03-19T11:27:08;98629.28;;;17.26;59.85
41264;BME280;26998;48.714;9.414;2023-03-19T11:29:43;98621.50;;;17.69;64.92
41264;BME280;26998;48.714;9.414;2023-03-19T11:32:41;98618.19;;;17.45;60.94
41264;BME280;26998;48.714;9.414;2023-03-19T11:35:19;98617.66;;;17.65;61.43
41264;BME280;26998;48.714;9.414;2023-03-19T11:37:52;98615.00;;;17.31;61.01
41264;BME280;26998;48.714;9.414;2023-03-19T11:48:48;98617.66;;;17.26;56.73
41264;BME280;26998;48.714;9.414;2023-03-19T11:51:21;98612.00;;;17.27;58.36
41264;BME280;26998;48.714;9.414;2023-03-19T11:54:03;98605.03;;;17.31;59.78
41264;BME280;26998;48.714;9.414;2023-03-19T11:56:43;98614.38;;;17.24;57.79
41264;BME280;26998;48.714;9.414;2023-03-19T11:59:31;98596.03;;;17.65;57.11
41264;BME280;26998;48.714;9.414;2023-03-19T12:07:43;98595.34;;;17.52;58.23
41264;BME280;26998;48.714;9.414;2023-03-19T12:13:58;98595.22;;;18.30;51.25
41264;BME280;26998;48.714;9.414;2023-03-19T12:16:38;98591.72;;;18.57;51.01
41264;BME280;26998;48.714;9.414;2023-03-19T12:19:44;98583.41;;;18.96;47.88
41264;BME280;26998;48.714;9.414;2023-03-19T12:22:29;98587.59;;;18.81;48.53
41264;BME280;26998;48.714;9.414;2023-03-19T12:25:40;98582.16;;;18.76;47.09
41264;BME280;26998;48.714;9.414;2023-03-19T12:28:26;98578.78;;;18.64;48.02
41264;BME280;26998;48.714;9.414;2023-03-19T12:36:42;98586.47;;;18.50;45.71
41264;BME280;26998;48.714;9.414;2023-03-19T12:39:16;98582.50;;;18.58;46.93
41264;BME280;26998;48.714;9.414;2023-03-19T12:41:45;98576.13;;;18.15;48.91
41264;BME280;26998;48.714;9.414;2023-03-19T12:44:23;98578.78;;;17.88;49.52
41264;BME280;26998;48.714;9.414;2023-03-19T12:47:06;98579.22;;;17.80;49.91
41264;BME280;26998;48.714;9.414;2023-03-19T12:49:36;98579.94;;;17.53;51.08
41264;BME280;26998;48.714;9.414;2023-03-19T12:52:15;98574.19;;;18.10;50.94
41264;BME280;26998;48.714;9.414;2023-03-19T12:54:58;98574.09;;;18.54;48.70
41264;BME280;26998;48.714;9.414;2023-03-19T12:57:35;98563.94;;;19.46;45.75
41264;BME280;26998;48.714;9.414;2023-03-19T13:02:58;98565.00;;;18.98;44.55
41264;BME280;26998;48.714;9.414;2023-03-19T13:05:50;98563.88;;;18.93;44.57
41264;BME280;26998;48.714;9.414;2023-03-19T13:10:47;98566.91;;;17.89;48.27
41264;BME280;26998;48.714;9.414;2023-03-19T13:13:27;98567.22;;;17.31;50.41
41264;BME280;26998;48.714;9.414;2023-03-19T13:16:05;98560.19;;;17.30;54.64
41264;BME280;26998;48.714;9.414;2023-03-19T13:18:57;98562.66;;;17.32;55.86
41264;BME280;26998;48.714;9.414;2023-03-19T13:21:30;98551.16;;;17.42;55.24
41264;BME280;26998;48.714;9.414;2023-03-19T13:26:42;98550.91;;;18.09;55.31
41264;BME280;26998;48.714;9.414;2023-03-19T13:29:26;98544.41;;;17.83;52.31
41264;BME280;26998;48.714;9.414;2023-03-19T13:32:00;98547.63;;;17.80;53.96
41264;BME280;26998;48.714;9.414;2023-03-19T13:34:30;98556.88;;;17.67;52.73
41264;BME280;26998;48.714;9.414;2023-03-19T13:37:03;98549.78;;;17.22;56.19
41264;BME280;26998;48.714;9.414;2023-03-19T13:39:32;98547.22;;;17.11;59.56
41264;BME280;26998;48.714;9.414;2023-03-19T13:44:34;98537.50;;;17.53;60.23
41264;BME280;26998;48.714;9.414;2023-03-19T13:47:34;98546.63;;;17.47;61.55
41264;BME280;26998;48.714;9.414;2023-03-19T14:03:28;98555.53;;;16.13;84.53
41264;BME280;26998;48.714;9.414;2023-03-19T14:05:57;98549.91;;;16.14;84.54
41264;BME280;26998;48.714;9.414;2023-03-19T14:08:27;98553.38;;;15.98;85.33
41264;BME280;26998;48.714;9.414;2023-03-19T14:10:57;98546.34;;;15.97;83.71
41264;BME280;26998;48.714;9.414;2023-03-19T14:16:14;98551.81;;;15.74;84.57
41264;BME280;26998;48.714;9.414;2023-03-19T14:18:41;98548.66;;;15.77;89.17